Edisto Island, SC

10:09 PM EDT on May 26, 2015 (GMT -0400)
Beaufort | | Change Station
CLOSE
Current Station
Airport
Location: Beaufort,
Elevation: 10 ft
Nearby Weather Stations

Elev 10 ft 32.41 °N, 80.63 °W | Updated 14 minutes ago

Partly Cloudy
Partly Cloudy
75 °F
Feels Like 75 °F
N
5
Wind Variable Wind from SSE

Today
High -- | Low -- °F
--% Chance of Precip.
Yesterday
High -- | Low -- °F
Precip. -- in
6:16 AM 8:20 PM
Waxing Gibbous, 63% visible
Pressure 30.24 in
Visibility 7.0 miles
Clouds Clear
Dew Point 72 °F
Humidity 89%
Rainfall 0.00 in
Snow Depth Not available.
UV 0 out of 12
Pollen 5.90 out of 12
Air Quality Not available.
Flu Activity Local Activity
METAR KARW 270155Z AUTO 16004KT 7SM CLR 24/22 A3024 RMK AO2

More Conditions Fewer Conditions

Pressure 30.24 in
Visibility 7.0 miles
Clouds Clear
Dew Point 72 °F
Humidity 89%
Rainfall 0.00 in
Snow Depth Not available.
UV 0 out of 12
Pollen 5.90 out of 12
Air Quality Not available.
Flu Activity Local Activity
METAR KARW 270155Z AUTO 16004KT 7SM CLR 24/22 A3024 RMK AO2

More Conditions Fewer Conditions

10-Day Weather Forecast

Almanac

Astronomy

May. 26, 2015 Rise Set
Actual Time
Civil Twilight
Nautical Twilight
Astronomical Twilight
Moon
Length of Visible Light
Length of Day
Tomorrow will be .
, % of the Moon is Illuminated

Today's Extremes

State Highs State Lows

Community

WunderPhotos

Upload Photos

1,824,558 photos uploaded!

WunderBlogs® & News

Nearby

Air Quality

  Air Quality AQ Index Pollutant
Not available.

Snow Depth

Station Depth Elevation

Earthquake Activity

City Distance Mag. Time & Date
Minimum magnitude displayed is 2.5.

Coastal Water Temperatures

Place Temperature

Stations

Nearby Weather Stations

Station Location Temp. Windchill Dew Point Humidity Wind Precip. Elev Updated Type